sensor_id;sensor_type;location;lat;lon;timestamp;pressure;altitude;pressure_sealevel;temperature;humidity
42621;BME280;28252;53.336;-6.298;2022-12-29T00:00:05;98115.13;;;26.87;41.92
42621;BME280;28252;53.336;-6.298;2022-12-29T00:00:37;98120.06;;;26.90;41.79
42621;BME280;28252;53.336;-6.298;2022-12-29T00:01:08;98117.00;;;26.92;41.83
42621;BME280;28252;53.336;-6.298;2022-12-29T00:01:39;98121.66;;;26.91;42.19
42621;BME280;28252;53.336;-6.298;2022-12-29T00:02:10;98121.94;;;26.90;41.68
42621;BME280;28252;53.336;-6.298;2022-12-29T00:02:41;98123.88;;;26.89;41.96
42621;BME280;28252;53.336;-6.298;2022-12-29T00:03:12;98123.88;;;26.89;42.05
42621;BME280;28252;53.336;-6.298;2022-12-29T00:03:46;98124.41;;;26.91;41.98
42621;BME280;28252;53.336;-6.298;2022-12-29T00:04:17;98123.31;;;26.92;41.52
42621;BME280;28252;53.336;-6.298;2022-12-29T00:04:49;98118.13;;;26.91;41.77
42621;BME280;28252;53.336;-6.298;2022-12-29T00:05:21;98124.94;;;26.93;41.88
42621;BME280;28252;53.336;-6.298;2022-12-29T00:05:55;98123.56;;;26.96;41.66
42621;BME280;28252;53.336;-6.298;2022-12-29T00:06:27;98123.56;;;26.96;41.80
42621;BME280;28252;53.336;-6.298;2022-12-29T00:06:58;98125.50;;;26.95;41.70
42621;BME280;28252;53.336;-6.298;2022-12-29T00:07:29;98126.31;;;26.96;41.66
42621;BME280;28252;53.336;-6.298;2022-12-29T00:08:00;98127.66;;;26.93;41.97
42621;BME280;28252;53.336;-6.298;2022-12-29T00:08:30;98125.78;;;26.94;41.95
42621;BME280;28252;53.336;-6.298;2022-12-29T00:09:11;98129.03;;;26.96;42.04
42621;BME280;28252;53.336;-6.298;2022-12-29T00:09:43;98129.84;;;26.96;41.99
42621;BME280;28252;53.336;-6.298;2022-12-29T00:10:14;98130.66;;;26.97;41.65
42621;BME280;28252;53.336;-6.298;2022-12-29T00:10:45;98131.50;;;26.97;41.80
42621;BME280;28252;53.336;-6.298;2022-12-29T00:11:17;98132.31;;;26.98;41.49
42621;BME280;28252;53.336;-6.298;2022-12-29T00:11:48;98129.84;;;26.96;41.43
42621;BME280;28252;53.336;-6.298;2022-12-29T00:12:20;98128.22;;;26.95;41.52
42621;BME280;28252;53.336;-6.298;2022-12-29T00:12:51;98133.97;;;26.99;41.66
42621;BME280;28252;53.336;-6.298;2022-12-29T00:13:41;98128.50;;;26.99;41.49
42621;BME280;28252;53.336;-6.298;2022-12-29T00:14:31;98124.38;;;26.96;41.49
42621;BME280;28252;53.336;-6.298;2022-12-29T00:15:20;98131.78;;;26.96;41.71
42621;BME280;28252;53.336;-6.298;2022-12-29T00:16:09;98132.59;;;26.96;41.58
42621;BME280;28252;53.336;-6.298;2022-12-29T00:16:42;98132.31;;;26.98;41.33
42621;BME280;28252;53.336;-6.298;2022-12-29T00:17:13;98138.56;;;26.98;41.67
42621;BME280;28252;53.336;-6.298;2022-12-29T00:17:44;98134.75;;;26.99;41.57
42621;BME280;28252;53.336;-6.298;2022-12-29T00:18:15;98135.03;;;27.03;41.51
42621;BME280;28252;53.336;-6.298;2022-12-29T00:18:46;98137.78;;;26.98;41.26
42621;BME280;28252;53.336;-6.298;2022-12-29T00:19:17;98132.59;;;26.96;41.75
42621;BME280;28252;53.336;-6.298;2022-12-29T00:20:07;98134.50;;;26.96;41.37
42621;BME280;28252;53.336;-6.298;2022-12-29T00:20:56;98135.84;;;26.93;41.61
42621;BME280;28252;53.336;-6.298;2022-12-29T00:21:46;98136.44;;;26.90;41.76
42621;BME280;28252;53.336;-6.298;2022-12-29T00:22:35;98137.25;;;26.91;41.59
42621;BME280;28252;53.336;-6.298;2022-12-29T00:23:25;98143.00;;;26.84;41.51
42621;BME280;28252;53.336;-6.298;2022-12-29T00:24:18;98148.47;;;26.84;41.64
42621;BME280;28252;53.336;-6.298;2022-12-29T00:24:52;98145.19;;;26.82;41.58
42621;BME280;28252;53.336;-6.298;2022-12-29T00:25:32;98146.81;;;26.83;41.63
42621;BME280;28252;53.336;-6.298;2022-12-29T00:26:22;98144.34;;;26.81;41.48
42621;BME280;28252;53.336;-6.298;2022-12-29T00:27:11;98153.94;;;26.79;41.31
42621;BME280;28252;53.336;-6.298;2022-12-29T00:28:01;98155.00;;;26.78;41.36
42621;BME280;28252;53.336;-6.298;2022-12-29T00:28:51;98149.56;;;26.78;41.53
42621;BME280;28252;53.336;-6.298;2022-12-29T00:29:41;98155.56;;;26.80;41.46
42621;BME280;28252;53.336;-6.298;2022-12-29T00:30:30;98150.94;;;26.80;41.60
42621;BME280;28252;53.336;-6.298;2022-12-29T00:31:20;98155.00;;;26.78;41.54
42621;BME280;28252;53.336;-6.298;2022-12-29T00:32:09;98152.28;;;26.73;41.40
42621;BME280;28252;53.336;-6.298;2022-12-29T00:32:59;98156.41;;;26.75;41.46
42621;BME280;28252;53.336;-6.298;2022-12-29T00:33:48;98154.47;;;26.71;41.75
42621;BME280;28252;53.336;-6.298;2022-12-29T00:34:38;98157.22;;;26.71;41.66
42621;BME280;28252;53.336;-6.298;2022-12-29T00:35:36;98157.22;;;26.71;41.52
42621;BME280;28252;53.336;-6.298;2022-12-29T00:36:10;98163.22;;;26.73;41.54
42621;BME280;28252;53.336;-6.298;2022-12-29T00:36:42;98161.59;;;26.72;41.29
42621;BME280;28252;53.336;-6.298;2022-12-29T00:37:14;98159.94;;;26.71;41.30
42621;BME280;28252;53.336;-6.298;2022-12-29T00:37:46;98164.34;;;26.67;41.46
42621;BME280;28252;53.336;-6.298;2022-12-29T00:38:37;98159.41;;;26.63;41.85
42621;BME280;28252;53.336;-6.298;2022-12-29T00:39:28;98158.59;;;26.63;41.64
42621;BME280;28252;53.336;-6.298;2022-12-29T00:40:18;98159.94;;;26.65;41.54
42621;BME280;28252;53.336;-6.298;2022-12-29T00:41:07;98162.69;;;26.65;41.58
42621;BME280;28252;53.336;-6.298;2022-12-29T00:42:02;98163.75;;;26.64;41.33
42621;BME280;28252;53.336;-6.298;2022-12-29T00:42:51;98163.75;;;26.59;41.34
42621;BME280;28252;53.336;-6.298;2022-12-29T00:43:41;98162.94;;;26.54;41.15
42621;BME280;28252;53.336;-6.298;2022-12-29T00:44:30;98166.75;;;26.47;41.86
42621;BME280;28252;53.336;-6.298;2022-12-29T00:45:01;98168.94;;;26.45;42.00
42621;BME280;28252;53.336;-6.298;2022-12-29T00:45:33;98165.66;;;26.49;41.51
42621;BME280;28252;53.336;-6.298;2022-12-29T00:46:04;98163.75;;;26.49;41.42
42621;BME280;28252;53.336;-6.298;2022-12-29T00:46:38;98160.75;;;26.51;41.47
42621;BME280;28252;53.336;-6.298;2022-12-29T00:47:10;98164.00;;;26.42;41.33
42621;BME280;28252;53.336;-6.298;2022-12-29T00:47:40;98161.59;;;26.46;41.63
42621;BME280;28252;53.336;-6.298;2022-12-29T00:48:11;98160.47;;;26.47;41.78
42621;BME280;28252;53.336;-6.298;2022-12-29T00:48:42;98167.03;;;26.51;41.67
42621;BME280;28252;53.336;-6.298;2022-12-29T00:49:32;98167.59;;;26.48;41.28
42621;BME280;28252;53.336;-6.298;2022-12-29T00:50:03;98155.56;;;26.44;41.84
42621;BME280;28252;53.336;-6.298;2022-12-29T00:50:34;98168.13;;;26.45;41.48
42621;BME280;28252;53.336;-6.298;2022-12-29T00:51:05;98159.66;;;26.46;41.96
42621;BME280;28252;53.336;-6.298;2022-12-29T00:51:36;98162.13;;;26.48;41.65
42621;BME280;28252;53.336;-6.298;2022-12-29T00:52:09;98162.66;;;26.45;41.45
42621;BME280;28252;53.336;-6.298;2022-12-29T00:52:40;98162.66;;;26.45;41.38
42621;BME280;28252;53.336;-6.298;2022-12-29T00:53:11;98163.47;;;26.40;41.36
42621;BME280;28252;53.336;-6.298;2022-12-29T00:53:42;98156.66;;;26.38;42.08
42621;BME280;28252;53.336;-6.298;2022-12-29T00:54:13;98158.03;;;26.40;41.96
42621;BME280;28252;53.336;-6.298;2022-12-29T00:54:45;98164.31;;;26.41;41.75
42621;BME280;28252;53.336;-6.298;2022-12-29T00:55:16;98152.56;;;26.40;41.68
42621;BME280;28252;53.336;-6.298;2022-12-29T00:55:47;98167.59;;;26.38;41.55
42621;BME280;28252;53.336;-6.298;2022-12-29T00:56:17;98165.94;;;26.37;41.58
42621;BME280;28252;53.336;-6.298;2022-12-29T00:56:49;98170.03;;;26.39;41.78
42621;BME280;28252;53.336;-6.298;2022-12-29T00:57:21;98175.22;;;26.41;41.73
42621;BME280;28252;53.336;-6.298;2022-12-29T00:57:52;98169.78;;;26.41;41.76
42621;BME280;28252;53.336;-6.298;2022-12-29T00:58:23;98182.31;;;26.42;41.39
42621;BME280;28252;53.336;-6.298;2022-12-29T00:58:54;98178.22;;;26.39;41.61
42621;BME280;28252;53.336;-6.298;2022-12-29T00:59:25;98171.41;;;26.37;41.88
42621;BME280;28252;53.336;-6.298;2022-12-29T00:59:56;98176.59;;;26.33;41.80
42621;BME280;28252;53.336;-6.298;2022-12-29T01:00:27;98181.50;;;26.31;41.52
42621;BME280;28252;53.336;-6.298;2022-12-29T01:01:04;98182.56;;;26.30;42.03
42621;BME280;28252;53.336;-6.298;2022-12-29T01:01:36;98176.31;;;26.35;41.94
42621;BME280;28252;53.336;-6.298;2022-12-29T01:02:08;98185.03;;;26.37;41.99
42621;BME280;28252;53.336;-6.298;2022-12-29T01:02:39;98182.31;;;26.32;41.69
42621;BME280;28252;53.336;-6.298;2022-12-29T01:03:10;98186.69;;;26.33;41.65
42621;BME280;28252;53.336;-6.298;2022-12-29T01:03:41;98183.97;;;26.33;41.72
42621;BME280;28252;53.336;-6.298;2022-12-29T01:04:12;98183.69;;;26.29;41.92
42621;BME280;28252;53.336;-6.298;2022-12-29T01:04:43;98185.03;;;26.32;41.76
42621;BME280;28252;53.336;-6.298;2022-12-29T01:05:14;98181.22;;;26.33;41.65
42621;BME280;28252;53.336;-6.298;2022-12-29T01:05:45;98183.13;;;26.27;41.77
42621;BME280;28252;53.336;-6.298;2022-12-29T01:06:16;98185.28;;;26.20;41.79
42621;BME280;28252;53.336;-6.298;2022-12-29T01:06:47;98187.22;;;26.19;41.92
42621;BME280;28252;53.336;-6.298;2022-12-29T01:07:18;98186.69;;;26.22;42.11
42621;BME280;28252;53.336;-6.298;2022-12-29T01:07:49;98194.59;;;26.24;41.56
42621;BME280;28252;53.336;-6.298;2022-12-29T01:08:20;98190.22;;;26.23;41.76
42621;BME280;28252;53.336;-6.298;2022-12-29T01:08:51;98186.41;;;26.19;41.49
42621;BME280;28252;53.336;-6.298;2022-12-29T01:09:43;98188.28;;;26.18;41.71
42621;BME280;28252;53.336;-6.298;2022-12-29T01:10:32;98192.66;;;26.19;41.82
42621;BME280;28252;53.336;-6.298;2022-12-29T01:11:04;98192.66;;;26.19;41.80
42621;BME280;28252;53.336;-6.298;2022-12-29T01:11:35;98191.28;;;26.22;41.62
42621;BME280;28252;53.336;-6.298;2022-12-29T01:12:07;98200.84;;;26.19;41.68
42621;BME280;28252;53.336;-6.298;2022-12-29T01:12:38;98200.84;;;26.14;41.79
42621;BME280;28252;53.336;-6.298;2022-12-29T01:13:12;98195.41;;;26.14;41.67
42621;BME280;28252;53.336;-6.298;2022-12-29T01:13:43;98184.47;;;26.14;41.60
42621;BME280;28252;53.336;-6.298;2022-12-29T01:14:14;98199.72;;;26.10;41.74
42621;BME280;28252;53.336;-6.298;2022-12-29T01:14:45;98191.28;;;26.06;42.08
42621;BME280;28252;53.336;-6.298;2022-12-29T01:15:16;98182.28;;;26.06;41.84
42621;BME280;28252;53.336;-6.298;2022-12-29T01:15:50;98186.09;;;26.05;41.81
42621;BME280;28252;53.336;-6.298;2022-12-29T01:16:21;98183.94;;;26.07;41.69
42621;BME280;28252;53.336;-6.298;2022-12-29T01:16:53;98185.81;;;26.06;41.80
42621;BME280;28252;53.336;-6.298;2022-12-29T01:17:24;98182.28;;;26.06;41.73
42621;BME280;28252;53.336;-6.298;2022-12-29T01:17:55;98198.66;;;26.06;41.98
42621;BME280;28252;53.336;-6.298;2022-12-29T01:18:26;98182.81;;;26.03;41.94
42621;BME280;28252;53.336;-6.298;2022-12-29T01:18:57;98193.72;;;26.03;41.71
42621;BME280;28252;53.336;-6.298;2022-12-29T01:19:28;98181.19;;;26.02;41.68
42621;BME280;28252;53.336;-6.298;2022-12-29T01:19:59;98191.00;;;25.98;41.85
42621;BME280;28252;53.336;-6.298;2022-12-29T01:20:30;98197.56;;;25.97;42.28
42621;BME280;28252;53.336;-6.298;2022-12-29T01:21:02;98192.91;;;25.97;41.97
42621;BME280;28252;53.336;-6.298;2022-12-29T01:21:34;98191.22;;;25.91;42.11
42621;BME280;28252;53.336;-6.298;2022-12-29T01:22:05;98194.22;;;25.89;42.09
42621;BME280;28252;53.336;-6.298;2022-12-29T01:22:36;98188.22;;;25.87;41.91
42621;BME280;28252;53.336;-6.298;2022-12-29T01:23:07;98192.59;;;25.88;42.10
42621;BME280;28252;53.336;-6.298;2022-12-29T01:23:38;98193.41;;;25.89;42.08
42621;BME280;28252;53.336;-6.298;2022-12-29T01:24:09;98195.59;;;25.92;42.15
42621;BME280;28252;53.336;-6.298;2022-12-29T01:24:40;98197.22;;;25.93;42.14
42621;BME280;28252;53.336;-6.298;2022-12-29T01:25:11;98195.03;;;25.90;41.94
42621;BME280;28252;53.336;-6.298;2022-12-29T01:25:42;98200.75;;;25.88;41.98
42621;BME280;28252;53.336;-6.298;2022-12-29T01:26:13;98207.28;;;25.87;41.93
42621;BME280;28252;53.336;-6.298;2022-12-29T01:26:45;98199.66;;;25.84;41.85
42621;BME280;28252;53.336;-6.298;2022-12-29T01:27:16;98207.81;;;25.84;42.25
42621;BME280;28252;53.336;-6.298;2022-12-29T01:27:47;98199.63;;;25.79;42.22
42621;BME280;28252;53.336;-6.298;2022-12-29T01:28:18;98200.22;;;25.81;42.27
42621;BME280;28252;53.336;-6.298;2022-12-29T01:28:49;98207.28;;;25.82;42.21
42621;BME280;28252;53.336;-6.298;2022-12-29T01:29:20;98195.03;;;25.85;42.08
42621;BME280;28252;53.336;-6.298;2022-12-29T01:29:51;98199.09;;;25.82;42.36
42621;BME280;28252;53.336;-6.298;2022-12-29T01:30:22;98202.38;;;25.84;42.34
42621;BME280;28252;53.336;-6.298;2022-12-29T01:30:53;98196.91;;;25.84;42.33
42621;BME280;28252;53.336;-6.298;2022-12-29T01:31:24;98208.38;;;25.81;41.92
42621;BME280;28252;53.336;-6.298;2022-12-29T01:31:55;98204.00;;;25.75;42.45
42621;BME280;28252;53.336;-6.298;2022-12-29T01:32:26;98202.88;;;25.71;42.20
42621;BME280;28252;53.336;-6.298;2022-12-29T01:32:56;98206.97;;;25.73;42.50
42621;BME280;28252;53.336;-6.298;2022-12-29T01:33:27;98210.53;;;25.74;42.29
42621;BME280;28252;53.336;-6.298;2022-12-29T01:33:58;98212.16;;;25.75;42.60
42621;BME280;28252;53.336;-6.298;2022-12-29T01:34:29;98204.53;;;25.72;42.10
42621;BME280;28252;53.336;-6.298;2022-12-29T01:35:00;98214.34;;;25.68;42.58
42621;BME280;28252;53.336;-6.298;2022-12-29T01:35:31;98210.50;;;25.69;42.14
42621;BME280;28252;53.336;-6.298;2022-12-29T01:36:03;98216.50;;;25.71;42.56
42621;BME280;28252;53.336;-6.298;2022-12-29T01:36:34;98217.59;;;25.70;42.17
42621;BME280;28252;53.336;-6.298;2022-12-29T01:37:06;98220.84;;;25.67;42.72
42621;BME280;28252;53.336;-6.298;2022-12-29T01:37:37;98212.69;;;25.67;42.37
42621;BME280;28252;53.336;-6.298;2022-12-29T01:38:08;98217.59;;;25.70;42.27
42621;BME280;28252;53.336;-6.298;2022-12-29T01:38:39;98222.50;;;25.68;42.33
42621;BME280;28252;53.336;-6.298;2022-12-29T01:39:10;98228.50;;;25.65;42.45
42621;BME280;28252;53.336;-6.298;2022-12-29T01:39:41;98226.03;;;25.63;42.77
42621;BME280;28252;53.336;-6.298;2022-12-29T01:40:12;98220.56;;;25.63;42.40
42621;BME280;28252;53.336;-6.298;2022-12-29T01:40:44;98230.41;;;25.64;42.65
42621;BME280;28252;53.336;-6.298;2022-12-29T01:41:16;98229.56;;;25.64;42.40
42621;BME280;28252;53.336;-6.298;2022-12-29T01:41:47;98230.94;;;25.61;42.46
42621;BME280;28252;53.336;-6.298;2022-12-29T01:42:19;98226.28;;;25.57;42.72
42621;BME280;28252;53.336;-6.298;2022-12-29T01:42:50;98234.44;;;25.57;42.48
42621;BME280;28252;53.336;-6.298;2022-12-29T01:43:21;98233.38;;;25.58;42.41
42621;BME280;28252;53.336;-6.298;2022-12-29T01:43:53;98231.47;;;25.58;42.23
42621;BME280;28252;53.336;-6.298;2022-12-29T01:45:32;98235.25;;;25.57;42.63
42621;BME280;28252;53.336;-6.298;2022-12-29T01:46:03;98232.78;;;25.56;42.48
42621;BME280;28252;53.336;-6.298;2022-12-29T01:46:36;98234.97;;;25.53;42.34
42621;BME280;28252;53.336;-6.298;2022-12-29T01:47:09;98236.34;;;25.51;42.81
42621;BME280;28252;53.336;-6.298;2022-12-29T01:47:44;98238.78;;;25.47;42.70
42621;BME280;28252;53.336;-6.298;2022-12-29T01:48:15;98235.22;;;25.47;42.51
42621;BME280;28252;53.336;-6.298;2022-12-29T01:48:47;98238.50;;;25.44;42.65
42621;BME280;28252;53.336;-6.298;2022-12-29T01:49:21;98239.56;;;25.43;43.02
42621;BME280;28252;53.336;-6.298;2022-12-29T01:49:55;98234.94;;;25.43;42.96
42621;BME280;28252;53.336;-6.298;2022-12-29T01:50:58;98234.34;;;25.36;42.87
42621;BME280;28252;53.336;-6.298;2022-12-29T01:51:29;98245.47;;;25.29;42.97
42621;BME280;28252;53.336;-6.298;2022-12-29T01:52:03;98237.84;;;25.31;42.88
42621;BME280;28252;53.336;-6.298;2022-12-29T01:52:36;98247.41;;;25.34;42.95
42621;BME280;28252;53.336;-6.298;2022-12-29T01:53:10;98237.34;;;25.34;43.17
42621;BME280;28252;53.336;-6.298;2022-12-29T01:53:42;98234.34;;;25.36;43.04
42621;BME280;28252;53.336;-6.298;2022-12-29T01:54:16;98232.44;;;25.37;43.08
42621;BME280;28252;53.336;-6.298;2022-12-29T01:54:49;98238.16;;;25.35;42.71
42621;BME280;28252;53.336;-6.298;2022-12-29T01:55:21;98237.34;;;25.34;43.03
42621;BME280;28252;53.336;-6.298;2022-12-29T01:55:54;98246.91;;;25.37;43.07
42621;BME280;28252;53.336;-6.298;2022-12-29T01:56:26;98244.44;;;25.35;42.61
42621;BME280;28252;53.336;-6.298;2022-12-29T01:56:57;98248.50;;;25.33;43.08
42621;BME280;28252;53.336;-6.298;2022-12-29T01:57:31;98253.41;;;25.31;42.87
42621;BME280;28252;53.336;-6.298;2022-12-29T01:58:04;98252.28;;;25.27;43.06
42621;BME280;28252;53.336;-6.298;2022-12-29T01:58:37;98248.19;;;25.29;42.90
42621;BME280;28252;53.336;-6.298;2022-12-29T01:59:15;98251.75;;;25.30;42.98
42621;BME280;28252;53.336;-6.298;2022-12-29T01:59:51;98261.00;;;25.29;42.70
42621;BME280;28252;53.336;-6.298;2022-12-29T02:00:24;98257.75;;;25.27;42.79
42621;BME280;28252;53.336;-6.298;2022-12-29T02:00:55;98254.41;;;25.25;43.18
42621;BME280;28252;53.336;-6.298;2022-12-29T02:01:26;98254.41;;;25.25;42.85
42621;BME280;28252;53.336;-6.298;2022-12-29T02:01:57;98252.78;;;25.24;42.95
42621;BME280;28252;53.336;-6.298;2022-12-29T02:02:28;98254.94;;;25.22;42.81
42621;BME280;28252;53.336;-6.298;2022-12-29T02:02:59;98254.66;;;25.23;42.94
42621;BME280;28252;53.336;-6.298;2022-12-29T02:03:30;98252.22;;;25.22;42.93
42621;BME280;28252;53.336;-6.298;2022-12-29T02:04:03;98253.31;;;25.21;42.98
42621;BME280;28252;53.336;-6.298;2022-12-29T02:04:34;98255.22;;;25.20;43.08
42621;BME280;28252;53.336;-6.298;2022-12-29T02:05:09;98263.09;;;25.16;42.85
42621;BME280;28252;53.336;-6.298;2022-12-29T02:05:52;98262.81;;;25.18;42.94
42621;BME280;28252;53.336;-6.298;2022-12-29T02:06:29;98262.81;;;25.18;43.02
42621;BME280;28252;53.336;-6.298;2022-12-29T02:07:07;98265.22;;;25.14;43.13
42621;BME280;28252;53.336;-6.298;2022-12-29T02:07:40;98256.50;;;25.12;43.02
42621;BME280;28252;53.336;-6.298;2022-12-29T02:08:12;98258.69;;;25.10;43.08
42621;BME280;28252;53.336;-6.298;2022-12-29T02:08:43;98264.66;;;25.07;43.09
42621;BME280;28252;53.336;-6.298;2022-12-29T02:09:17;98257.88;;;25.10;43.39
42621;BME280;28252;53.336;-6.298;2022-12-29T02:09:48;98261.97;;;25.12;43.31
42621;BME280;28252;53.336;-6.298;2022-12-29T02:10:23;98263.63;;;25.13;42.90
42621;BME280;28252;53.336;-6.298;2022-12-29T02:10:56;98266.34;;;25.13;42.64
42621;BME280;28252;53.336;-6.298;2022-12-29T02:11:27;98266.31;;;25.08;42.86
42621;BME280;28252;53.336;-6.298;2022-12-29T02:11:59;98262.47;;;25.09;43.12
42621;BME280;28252;53.336;-6.298;2022-12-29T02:12:30;98266.81;;;25.05;43.07
42621;BME280;28252;53.336;-6.298;2022-12-29T02:13:01;98265.72;;;25.06;42.88
42621;BME280;28252;53.336;-6.298;2022-12-29T02:13:32;98268.72;;;25.05;42.90
42621;BME280;28252;53.336;-6.298;2022-12-29T02:14:07;98264.09;;;25.05;43.05
42621;BME280;28252;53.336;-6.298;2022-12-29T02:14:39;98266.25;;;25.03;42.97
42621;BME280;28252;53.336;-6.298;2022-12-29T02:15:10;98273.03;;;25.01;43.10
42621;BME280;28252;53.336;-6.298;2022-12-29T02:15:54;98274.13;;;25.00;43.11
42621;BME280;28252;53.336;-6.298;2022-12-29T02:16:40;98277.41;;;25.02;42.91
42621;BME280;28252;53.336;-6.298;2022-12-29T02:18:10;98271.69;;;24.98;43.46
42621;BME280;28252;53.336;-6.298;2022-12-29T02:19:35;98270.78;;;24.92;42.92
42621;BME280;28252;53.336;-6.298;2022-12-29T02:21:53;98265.81;;;24.84;43.57
42621;BME280;28252;53.336;-6.298;2022-12-29T02:23:45;98280.78;;;24.82;43.51
42621;BME280;28252;53.336;-6.298;2022-12-29T02:24:06;98270.47;;;24.84;43.10
42621;BME280;28252;53.336;-6.298;2022-12-29T02:29:29;98287.31;;;24.80;42.87
42621;BME280;28252;53.336;-6.298;2022-12-29T02:33:26;98296.28;;;24.76;43.03
42621;BME280;28252;53.336;-6.298;2022-12-29T02:34:39;98298.94;;;24.71;43.26
42621;BME280;28252;53.336;-6.298;2022-12-29T02:37:06;98309.53;;;24.67;43.23
42621;BME280;28252;53.336;-6.298;2022-12-29T02:40:12;98308.38;;;24.63;43.37
42621;BME280;28252;53.336;-6.298;2022-12-29T02:42:27;98317.66;;;24.62;43.19
42621;BME280;28252;53.336;-6.298;2022-12-29T02:43:04;98308.91;;;24.60;43.32
42621;BME280;28252;53.336;-6.298;2022-12-29T02:43:39;98315.94;;;24.56;43.24
42621;BME280;28252;53.336;-6.298;2022-12-29T02:45:03;98320.78;;;24.54;43.38
42621;BME280;28252;53.336;-6.298;2022-12-29T02:45:41;98324.84;;;24.51;43.40
42621;BME280;28252;53.336;-6.298;2022-12-29T02:48:00;98337.31;;;24.47;43.45
42621;BME280;28252;53.336;-6.298;2022-12-29T02:48:39;98332.13;;;24.46;43.51
42621;BME280;28252;53.336;-6.298;2022-12-29T02:50:20;98342.47;;;24.43;43.15
42621;BME280;28252;53.336;-6.298;2022-12-29T02:52:30;98352.25;;;24.45;43.34
42621;BME280;28252;53.336;-6.298;2022-12-29T02:53:04;98346.25;;;24.42;43.40
42621;BME280;28252;53.336;-6.298;2022-12-29T02:53:36;98362.25;;;24.39;43.42
42621;BME280;28252;53.336;-6.298;2022-12-29T02:54:27;98355.41;;;24.36;43.27
42621;BME280;28252;53.336;-6.298;2022-12-29T02:55:13;98347.25;;;24.36;43.50
42621;BME280;28252;53.336;-6.298;2022-12-29T02:55:51;98344.28;;;24.38;43.36
42621;BME280;28252;53.336;-6.298;2022-12-29T02:56:22;98344.03;;;24.39;43.50
42621;BME280;28252;53.336;-6.298;2022-12-29T02:56:53;98347.00;;;24.38;43.50
42621;BME280;28252;53.336;-6.298;2022-12-29T02:58:39;98341.50;;;24.33;43.11
42621;BME280;28252;53.336;-6.298;2022-12-29T02:59:10;98347.72;;;24.28;43.54
42621;BME280;28252;53.336;-6.298;2022-12-29T02:59:42;98354.50;;;24.26;43.35
42621;BME280;28252;53.336;-6.298;2022-12-29T03:00:15;98348.50;;;24.23;43.59
42621;BME280;28252;53.336;-6.298;2022-12-29T03:01:40;98349.88;;;24.26;43.43
42621;BME280;28252;53.336;-6.298;2022-12-29T03:02:55;98347.66;;;24.23;43.61
42621;BME280;28252;53.336;-6.298;2022-12-29T03:07:14;98352.72;;;24.14;43.81
42621;BME280;28252;53.336;-6.298;2022-12-29T03:11:04;98363.03;;;24.12;43.74
42621;BME280;28252;53.336;-6.298;2022-12-29T03:11:38;98362.22;;;24.12;43.73
42621;BME280;28252;53.336;-6.298;2022-12-29T03:13:32;98363.53;;;24.09;43.60
42621;BME280;28252;53.336;-6.298;2022-12-29T03:15:00;98363.81;;;24.08;43.98
42621;BME280;28252;53.336;-6.298;2022-12-29T03:15:44;98364.88;;;24.07;43.91
42621;BME280;28252;53.336;-6.298;2022-12-29T03:17:15;98362.09;;;24.01;43.94
42621;BME280;28252;53.336;-6.298;2022-12-29T03:17:58;98368.09;;;24.03;43.60
42621;BME280;28252;53.336;-6.298;2022-12-29T03:19:47;98362.66;;;24.03;43.56
42621;BME280;28252;53.336;-6.298;2022-12-29T03:20:11;98363.75;;;24.02;43.38
42621;BME280;28252;53.336;-6.298;2022-12-29T03:20:49;98364.56;;;24.03;43.77
42621;BME280;28252;53.336;-6.298;2022-12-29T03:22:18;98364.25;;;23.99;43.83
42621;BME280;28252;53.336;-6.298;2022-12-29T03:23:03;98371.84;;;23.97;43.88
42621;BME280;28252;53.336;-6.298;2022-12-29T03:23:34;98369.13;;;23.97;43.59
42621;BME280;28252;53.336;-6.298;2022-12-29T03:24:07;98368.53;;;23.95;44.05
42621;BME280;28252;53.336;-6.298;2022-12-29T03:24:42;98377.78;;;23.94;43.58
42621;BME280;28252;53.336;-6.298;2022-12-29T03:25:15;98381.06;;;23.96;43.84
42621;BME280;28252;53.336;-6.298;2022-12-29T03:25:51;98379.41;;;23.95;43.66
42621;BME280;28252;53.336;-6.298;2022-12-29T03:26:23;98381.22;;;23.90;43.98
42621;BME280;28252;53.336;-6.298;2022-12-29T03:26:55;98382.28;;;23.89;44.02
42621;BME280;28252;53.336;-6.298;2022-12-29T03:27:31;98389.38;;;23.90;44.00
42621;BME280;28252;53.336;-6.298;2022-12-29T03:28:07;98388.81;;;23.88;43.63
42621;BME280;28252;53.336;-6.298;2022-12-29T03:28:40;98387.41;;;23.85;44.02
42621;BME280;28252;53.336;-6.298;2022-12-29T03:29:13;98394.25;;;23.88;43.78
42621;BME280;28252;53.336;-6.298;2022-12-29T03:29:47;98402.66;;;23.86;43.91
42621;BME280;28252;53.336;-6.298;2022-12-29T03:30:22;98397.72;;;23.83;43.93
42621;BME280;28252;53.336;-6.298;2022-12-29T03:30:54;98388.50;;;23.84;44.10
42621;BME280;28252;53.336;-6.298;2022-12-29T03:31:26;98397.72;;;23.83;43.86
42621;BME280;28252;53.336;-6.298;2022-12-29T03:31:57;98397.22;;;23.86;43.82
42621;BME280;28252;53.336;-6.298;2022-12-29T03:32:31;98402.66;;;23.86;43.75
42621;BME280;28252;53.336;-6.298;2022-12-29T03:33:04;98399.38;;;23.84;44.00
42621;BME280;28252;53.336;-6.298;2022-12-29T03:33:36;98404.81;;;23.84;43.84
42621;BME280;28252;53.336;-6.298;2022-12-29T03:34:09;98398.78;;;23.82;43.92
42621;BME280;28252;53.336;-6.298;2022-12-29T03:34:40;98392.19;;;23.78;43.88
42621;BME280;28252;53.336;-6.298;2022-12-29T03:35:13;98394.91;;;23.78;44.24
42621;BME280;28252;53.336;-6.298;2022-12-29T03:35:45;98397.03;;;23.76;43.81
42621;BME280;28252;53.336;-6.298;2022-12-29T03:36:20;98398.19;;;23.80;44.02
42621;BME280;28252;53.336;-6.298;2022-12-29T03:37:05;98398.69;;;23.77;43.87
42621;BME280;28252;53.336;-6.298;2022-12-29T03:37:39;98404.09;;;23.77;43.86
42621;BME280;28252;53.336;-6.298;2022-12-29T03:38:19;98396.56;;;23.79;43.97
42621;BME280;28252;53.336;-6.298;2022-12-29T03:39:25;98399.84;;;23.81;43.96
42621;BME280;28252;53.336;-6.298;2022-12-29T03:39:49;98404.09;;;23.77;43.97
42621;BME280;28252;53.336;-6.298;2022-12-29T03:40:20;98412.53;;;23.75;43.91
42621;BME280;28252;53.336;-6.298;2022-12-29T03:40:55;98403.53;;;23.75;43.78
42621;BME280;28252;53.336;-6.298;2022-12-29T03:41:28;98408.41;;;23.73;44.06
42621;BME280;28252;53.336;-6.298;2022-12-29T03:42:04;98406.75;;;23.72;44.01
42621;BME280;28252;53.336;-6.298;2022-12-29T03:42:36;98406.75;;;23.72;44.07